Česky Dansk Deutsch English Español Suomi Français Magyar Italiano Nederlands norsk Polski Português svenska Türkçe

 

Het Weer

Bisha (Saudi-Arabië)

23:00, 20 agosto 2016 (GMT)

NWNNE
WE
SWSSE
Home            
Bisha Al Baha Khamis Mushait Abha Taif Wadi Al Dawasser Airport Najran Makkah Gizan Sa'Ada / Sadah Jeddah Jeddah King Abdul Aziz International Airport Al-Hazm Sana'A Dawadmi Sharurah Port Sudan Port Sudan International Marib Hodeidah Madinah Massawa Asmara

Om een weerknop op uw website of weblog te plaatsen, copieer onderstaande code en plak die in uw pagina. In het eerste vakje staat HTML-code, in het tweede vakje UBB-code.


Add to Google

Details

Visibilità totale:Maggiore di 10000 m, 10 km, 32800 ft, 6.2 miles
Clouds:Aufgelockert bewölkt at 3000 ft, 914 m
Temperature:28°C, 82°F
Sensazione termica:27°C, 81°F
Temperatura di rugiada :9°C, 48°F
Pressione atmosferica:1013 hPa, 759.8 mmHg, 29.91 inHg, 1.000 atm
Umidità relativa:30.4 %
METAR:OEBH 202300Z 00000KT 9999 SCT030 28/09 Q1013 NOSIG

Snelkoppelingen

Actuele weersinformatie van de hele wereld. Voeg locaties toe met het plus (+) symbool. Deze snelkoppelingen kunnen worden toegevoegd aan Google.

Lid van de Technetium groep

website free tracking
StatCounter NetStat W3C Validator

17-04-2021 11:13:48
astro.technetium.be money.technetium.be phote.technetium.be tafeltennistafel.technetium.be www.ligfiets.net